sensor_id;sensor_type;location;lat;lon;timestamp;P1;durP1;ratioP1;P2;durP2;ratioP2
44328;SDS011;30039;51.462;6.892;2024-02-15T00:00:40;13.85;;;5.15;;
44328;SDS011;30039;51.462;6.892;2024-02-15T00:03:28;9.40;;;4.57;;
44328;SDS011;30039;51.462;6.892;2024-02-15T00:06:14;13.95;;;5.32;;
44328;SDS011;30039;51.462;6.892;2024-02-15T00:08:59;11.18;;;5.55;;
44328;SDS011;30039;51.462;6.892;2024-02-15T00:11:45;12.70;;;5.93;;
44328;SDS011;30039;51.462;6.892;2024-02-15T00:14:31;11.90;;;6.55;;
44328;SDS011;30039;51.462;6.892;2024-02-15T00:17:17;13.32;;;6.28;;
44328;SDS011;30039;51.462;6.892;2024-02-15T00:20:03;20.45;;;7.45;;
44328;SDS011;30039;51.462;6.892;2024-02-15T00:22:54;16.70;;;6.38;;
44328;SDS011;30039;51.462;6.892;2024-02-15T00:25:41;11.13;;;6.03;;
44328;SDS011;30039;51.462;6.892;2024-02-15T00:28:29;10.27;;;6.28;;
44328;SDS011;30039;51.462;6.892;2024-02-15T00:31:15;13.68;;;6.20;;
44328;SDS011;30039;51.462;6.892;2024-02-15T00:34:00;13.07;;;6.30;;
44328;SDS011;30039;51.462;6.892;2024-02-15T00:36:47;16.10;;;6.85;;
44328;SDS011;30039;51.462;6.892;2024-02-15T00:39:33;12.80;;;8.18;;
44328;SDS011;30039;51.462;6.892;2024-02-15T00:42:18;15.88;;;9.65;;
44328;SDS011;30039;51.462;6.892;2024-02-15T00:45:04;15.02;;;9.93;;
44328;SDS011;30039;51.462;6.892;2024-02-15T00:47:50;21.10;;;10.98;;
44328;SDS011;30039;51.462;6.892;2024-02-15T00:50:35;13.82;;;9.52;;
44328;SDS011;30039;51.462;6.892;2024-02-15T00:53:21;15.05;;;9.27;;
44328;SDS011;30039;51.462;6.892;2024-02-15T00:56:07;15.68;;;9.48;;
44328;SDS011;30039;51.462;6.892;2024-02-15T00:58:53;15.57;;;9.25;;
44328;SDS011;30039;51.462;6.892;2024-02-15T01:01:38;14.13;;;9.50;;
44328;SDS011;30039;51.462;6.892;2024-02-15T01:04:24;16.50;;;8.82;;
44328;SDS011;30039;51.462;6.892;2024-02-15T01:07:09;14.60;;;8.32;;
44328;SDS011;30039;51.462;6.892;2024-02-15T01:09:55;12.57;;;7.63;;
44328;SDS011;30039;51.462;6.892;2024-02-15T01:12:41;18.38;;;8.02;;
44328;SDS011;30039;51.462;6.892;2024-02-15T01:15:26;17.50;;;7.32;;
44328;SDS011;30039;51.462;6.892;2024-02-15T01:18:12;12.27;;;6.63;;
44328;SDS011;30039;51.462;6.892;2024-02-15T01:20:57;11.45;;;6.72;;
44328;SDS011;30039;51.462;6.892;2024-02-15T01:23:43;15.02;;;6.32;;
44328;SDS011;30039;51.462;6.892;2024-02-15T01:26:29;11.88;;;5.63;;
44328;SDS011;30039;51.462;6.892;2024-02-15T01:29:15;10.80;;;6.13;;
44328;SDS011;30039;51.462;6.892;2024-02-15T01:32:00;14.30;;;6.18;;
44328;SDS011;30039;51.462;6.892;2024-02-15T01:34:47;13.15;;;6.50;;
44328;SDS011;30039;51.462;6.892;2024-02-15T01:37:33;12.25;;;5.50;;
44328;SDS011;30039;51.462;6.892;2024-02-15T01:40:19;14.38;;;5.85;;
44328;SDS011;30039;51.462;6.892;2024-02-15T01:43:04;12.80;;;5.80;;
44328;SDS011;30039;51.462;6.892;2024-02-15T01:45:50;9.98;;;5.57;;
44328;SDS011;30039;51.462;6.892;2024-02-15T01:48:36;10.30;;;5.68;;
44328;SDS011;30039;51.462;6.892;2024-02-15T01:51:22;12.80;;;6.32;;
44328;SDS011;30039;51.462;6.892;2024-02-15T01:54:09;9.68;;;5.10;;
44328;SDS011;30039;51.462;6.892;2024-02-15T01:56:55;12.68;;;5.25;;
44328;SDS011;30039;51.462;6.892;2024-02-15T01:59:41;10.45;;;5.88;;
44328;SDS011;30039;51.462;6.892;2024-02-15T02:02:26;9.45;;;4.70;;
44328;SDS011;30039;51.462;6.892;2024-02-15T02:05:16;10.50;;;5.57;;
44328;SDS011;30039;51.462;6.892;2024-02-15T02:08:01;9.50;;;5.20;;
44328;SDS011;30039;51.462;6.892;2024-02-15T02:10:50;9.65;;;4.45;;
44328;SDS011;30039;51.462;6.892;2024-02-15T02:13:35;13.93;;;5.20;;
44328;SDS011;30039;51.462;6.892;2024-02-15T02:16:27;11.85;;;5.30;;
44328;SDS011;30039;51.462;6.892;2024-02-15T02:19:14;8.50;;;4.70;;
44328;SDS011;30039;51.462;6.892;2024-02-15T02:21:59;14.85;;;4.93;;
44328;SDS011;30039;51.462;6.892;2024-02-15T02:28:03;13.05;;;5.18;;
44328;SDS011;30039;51.462;6.892;2024-02-15T02:30:49;8.18;;;4.78;;
44328;SDS011;30039;51.462;6.892;2024-02-15T02:33:35;10.30;;;4.50;;
44328;SDS011;30039;51.462;6.892;2024-02-15T02:36:20;10.73;;;5.00;;
44328;SDS011;30039;51.462;6.892;2024-02-15T02:39:06;7.32;;;4.13;;
44328;SDS011;30039;51.462;6.892;2024-02-15T02:41:52;7.80;;;4.07;;
44328;SDS011;30039;51.462;6.892;2024-02-15T02:44:38;7.57;;;4.05;;
44328;SDS011;30039;51.462;6.892;2024-02-15T02:47:23;9.00;;;3.78;;
44328;SDS011;30039;51.462;6.892;2024-02-15T02:50:09;5.03;;;3.80;;
44328;SDS011;30039;51.462;6.892;2024-02-15T02:52:55;9.02;;;3.70;;
44328;SDS011;30039;51.462;6.892;2024-02-15T02:55:40;8.57;;;3.65;;
44328;SDS011;30039;51.462;6.892;2024-02-15T02:58:26;12.10;;;3.92;;
44328;SDS011;30039;51.462;6.892;2024-02-15T03:01:12;15.13;;;3.72;;
44328;SDS011;30039;51.462;6.892;2024-02-15T03:03:58;11.85;;;3.85;;
44328;SDS011;30039;51.462;6.892;2024-02-15T03:06:44;8.52;;;3.15;;
44328;SDS011;30039;51.462;6.892;2024-02-15T03:09:29;10.27;;;3.67;;
44328;SDS011;30039;51.462;6.892;2024-02-15T03:12:15;10.00;;;3.92;;
44328;SDS011;30039;51.462;6.892;2024-02-15T03:15:03;10.40;;;3.90;;
44328;SDS011;30039;51.462;6.892;2024-02-15T03:17:49;6.88;;;3.17;;
44328;SDS011;30039;51.462;6.892;2024-02-15T03:20:38;11.00;;;3.35;;
44328;SDS011;30039;51.462;6.892;2024-02-15T03:23:23;9.25;;;3.33;;
44328;SDS011;30039;51.462;6.892;2024-02-15T03:26:09;10.15;;;3.25;;
44328;SDS011;30039;51.462;6.892;2024-02-15T03:28:55;8.50;;;3.55;;
44328;SDS011;30039;51.462;6.892;2024-02-15T03:31:40;8.07;;;3.50;;
44328;SDS011;30039;51.462;6.892;2024-02-15T03:34:26;10.25;;;3.65;;
44328;SDS011;30039;51.462;6.892;2024-02-15T03:37:12;6.82;;;3.38;;
44328;SDS011;30039;51.462;6.892;2024-02-15T03:39:57;6.80;;;2.95;;
44328;SDS011;30039;51.462;6.892;2024-02-15T03:42:43;6.78;;;3.85;;
44328;SDS011;30039;51.462;6.892;2024-02-15T03:45:28;8.48;;;2.95;;
44328;SDS011;30039;51.462;6.892;2024-02-15T03:48:14;9.02;;;3.35;;
44328;SDS011;30039;51.462;6.892;2024-02-15T03:50:59;10.85;;;3.78;;
44328;SDS011;30039;51.462;6.892;2024-02-15T03:53:47;9.27;;;3.58;;
44328;SDS011;30039;51.462;6.892;2024-02-15T03:56:45;9.98;;;3.40;;
44328;SDS011;30039;51.462;6.892;2024-02-15T03:59:31;7.88;;;3.42;;
44328;SDS011;30039;51.462;6.892;2024-02-15T04:02:17;7.43;;;3.13;;
44328;SDS011;30039;51.462;6.892;2024-02-15T04:05:03;9.13;;;3.60;;
44328;SDS011;30039;51.462;6.892;2024-02-15T04:07:50;8.38;;;3.75;;
44328;SDS011;30039;51.462;6.892;2024-02-15T04:10:36;9.82;;;3.70;;
44328;SDS011;30039;51.462;6.892;2024-02-15T04:13:21;9.48;;;3.88;;
44328;SDS011;30039;51.462;6.892;2024-02-15T04:16:07;6.57;;;3.47;;
44328;SDS011;30039;51.462;6.892;2024-02-15T04:18:52;8.82;;;2.97;;
44328;SDS011;30039;51.462;6.892;2024-02-15T04:21:38;11.48;;;3.67;;
44328;SDS011;30039;51.462;6.892;2024-02-15T04:24:25;9.32;;;3.58;;
44328;SDS011;30039;51.462;6.892;2024-02-15T04:27:11;10.75;;;3.45;;
44328;SDS011;30039;51.462;6.892;2024-02-15T04:29:59;8.00;;;3.63;;
44328;SDS011;30039;51.462;6.892;2024-02-15T04:32:45;10.75;;;3.88;;
44328;SDS011;30039;51.462;6.892;2024-02-15T04:35:32;7.30;;;3.42;;
44328;SDS011;30039;51.462;6.892;2024-02-15T04:38:17;6.72;;;3.58;;
44328;SDS011;30039;51.462;6.892;2024-02-15T04:41:05;8.18;;;3.15;;
44328;SDS011;30039;51.462;6.892;2024-02-15T04:43:52;10.18;;;3.10;;
44328;SDS011;30039;51.462;6.892;2024-02-15T04:46:37;7.22;;;3.03;;
44328;SDS011;30039;51.462;6.892;2024-02-15T04:49:24;5.95;;;3.22;;
44328;SDS011;30039;51.462;6.892;2024-02-15T04:52:09;7.22;;;2.75;;
44328;SDS011;30039;51.462;6.892;2024-02-15T04:54:55;7.18;;;3.15;;
44328;SDS011;30039;51.462;6.892;2024-02-15T04:57:43;5.53;;;2.75;;
44328;SDS011;30039;51.462;6.892;2024-02-15T05:00:29;10.75;;;3.08;;
44328;SDS011;30039;51.462;6.892;2024-02-15T05:03:14;5.05;;;3.00;;
44328;SDS011;30039;51.462;6.892;2024-02-15T05:06:00;4.80;;;2.15;;
44328;SDS011;30039;51.462;6.892;2024-02-15T05:08:46;5.80;;;2.40;;
44328;SDS011;30039;51.462;6.892;2024-02-15T05:11:36;8.48;;;2.75;;
44328;SDS011;30039;51.462;6.892;2024-02-15T05:14:22;5.68;;;2.65;;
44328;SDS011;30039;51.462;6.892;2024-02-15T05:17:08;5.45;;;2.55;;
44328;SDS011;30039;51.462;6.892;2024-02-15T05:19:57;4.93;;;2.22;;
44328;SDS011;30039;51.462;6.892;2024-02-15T05:22:44;3.65;;;2.55;;
44328;SDS011;30039;51.462;6.892;2024-02-15T05:25:31;5.80;;;2.00;;
44328;SDS011;30039;51.462;6.892;2024-02-15T05:28:18;5.60;;;2.13;;
44328;SDS011;30039;51.462;6.892;2024-02-15T05:31:14;5.07;;;2.15;;
44328;SDS011;30039;51.462;6.892;2024-02-15T05:34:02;4.53;;;1.85;;
44328;SDS011;30039;51.462;6.892;2024-02-15T05:36:48;4.00;;;2.08;;
44328;SDS011;30039;51.462;6.892;2024-02-15T05:39:33;4.25;;;2.20;;
44328;SDS011;30039;51.462;6.892;2024-02-15T05:42:19;3.60;;;2.20;;
44328;SDS011;30039;51.462;6.892;2024-02-15T05:48:12;4.63;;;2.20;;
44328;SDS011;30039;51.462;6.892;2024-02-15T05:50:57;4.00;;;2.45;;
44328;SDS011;30039;51.462;6.892;2024-02-15T05:53:44;6.55;;;2.00;;
44328;SDS011;30039;51.462;6.892;2024-02-15T05:56:30;6.85;;;2.45;;
44328;SDS011;30039;51.462;6.892;2024-02-15T05:59:16;7.05;;;2.13;;
44328;SDS011;30039;51.462;6.892;2024-02-15T06:02:01;8.25;;;2.45;;
44328;SDS011;30039;51.462;6.892;2024-02-15T06:04:48;5.20;;;2.40;;
44328;SDS011;30039;51.462;6.892;2024-02-15T06:07:33;4.80;;;2.40;;
44328;SDS011;30039;51.462;6.892;2024-02-15T06:10:19;6.53;;;2.40;;
44328;SDS011;30039;51.462;6.892;2024-02-15T06:13:05;6.10;;;2.22;;
44328;SDS011;30039;51.462;6.892;2024-02-15T06:15:50;7.05;;;2.13;;
44328;SDS011;30039;51.462;6.892;2024-02-15T06:18:39;3.03;;;1.85;;
44328;SDS011;30039;51.462;6.892;2024-02-15T06:21:24;6.78;;;2.22;;
44328;SDS011;30039;51.462;6.892;2024-02-15T06:24:10;4.03;;;2.10;;
44328;SDS011;30039;51.462;6.892;2024-02-15T06:26:56;7.45;;;2.50;;
44328;SDS011;30039;51.462;6.892;2024-02-15T06:29:45;9.60;;;2.40;;
44328;SDS011;30039;51.462;6.892;2024-02-15T06:32:49;4.93;;;2.20;;
44328;SDS011;30039;51.462;6.892;2024-02-15T06:35:53;5.65;;;2.10;;
44328;SDS011;30039;51.462;6.892;2024-02-15T06:38:57;6.13;;;2.57;;
44328;SDS011;30039;51.462;6.892;2024-02-15T06:42:02;5.93;;;2.45;;
44328;SDS011;30039;51.462;6.892;2024-02-15T06:44:47;5.90;;;2.40;;
44328;SDS011;30039;51.462;6.892;2024-02-15T06:47:33;4.60;;;2.42;;
44328;SDS011;30039;51.462;6.892;2024-02-15T06:50:19;7.03;;;2.63;;
44328;SDS011;30039;51.462;6.892;2024-02-15T06:53:05;5.22;;;2.30;;
44328;SDS011;30039;51.462;6.892;2024-02-15T06:55:51;8.50;;;2.38;;
44328;SDS011;30039;51.462;6.892;2024-02-15T06:58:36;5.10;;;2.05;;
44328;SDS011;30039;51.462;6.892;2024-02-15T07:01:23;5.65;;;2.90;;
44328;SDS011;30039;51.462;6.892;2024-02-15T07:04:09;8.32;;;2.97;;
44328;SDS011;30039;51.462;6.892;2024-02-15T07:06:57;7.85;;;2.95;;
44328;SDS011;30039;51.462;6.892;2024-02-15T07:09:43;8.88;;;3.15;;
44328;SDS011;30039;51.462;6.892;2024-02-15T07:12:29;7.85;;;2.75;;
44328;SDS011;30039;51.462;6.892;2024-02-15T07:15:14;7.63;;;2.63;;
44328;SDS011;30039;51.462;6.892;2024-02-15T07:18:00;8.05;;;2.47;;
44328;SDS011;30039;51.462;6.892;2024-02-15T07:20:46;5.72;;;2.78;;
44328;SDS011;30039;51.462;6.892;2024-02-15T07:23:32;8.55;;;2.97;;
44328;SDS011;30039;51.462;6.892;2024-02-15T07:26:18;8.10;;;2.70;;
44328;SDS011;30039;51.462;6.892;2024-02-15T07:29:05;5.55;;;2.75;;
44328;SDS011;30039;51.462;6.892;2024-02-15T07:31:51;4.57;;;2.38;;
44328;SDS011;30039;51.462;6.892;2024-02-15T07:34:36;6.35;;;2.20;;
44328;SDS011;30039;51.462;6.892;2024-02-15T07:37:22;5.40;;;2.45;;
44328;SDS011;30039;51.462;6.892;2024-02-15T07:40:11;6.07;;;2.50;;
44328;SDS011;30039;51.462;6.892;2024-02-15T07:42:59;8.02;;;2.40;;
44328;SDS011;30039;51.462;6.892;2024-02-15T07:45:44;5.82;;;2.28;;
44328;SDS011;30039;51.462;6.892;2024-02-15T07:48:30;9.63;;;2.78;;
44328;SDS011;30039;51.462;6.892;2024-02-15T07:51:16;7.63;;;2.42;;
44328;SDS011;30039;51.462;6.892;2024-02-15T07:54:03;5.57;;;2.28;;
44328;SDS011;30039;51.462;6.892;2024-02-15T07:56:50;7.38;;;2.38;;
44328;SDS011;30039;51.462;6.892;2024-02-15T07:59:35;7.45;;;2.90;;
44328;SDS011;30039;51.462;6.892;2024-02-15T08:02:21;4.95;;;2.20;;
44328;SDS011;30039;51.462;6.892;2024-02-15T08:05:08;8.50;;;2.40;;
44328;SDS011;30039;51.462;6.892;2024-02-15T08:07:55;7.47;;;2.70;;
44328;SDS011;30039;51.462;6.892;2024-02-15T08:10:42;6.63;;;2.60;;
44328;SDS011;30039;51.462;6.892;2024-02-15T08:13:29;4.20;;;2.20;;
44328;SDS011;30039;51.462;6.892;2024-02-15T08:16:15;5.32;;;2.10;;
44328;SDS011;30039;51.462;6.892;2024-02-15T08:19:01;6.68;;;2.20;;
44328;SDS011;30039;51.462;6.892;2024-02-15T08:21:47;5.50;;;2.42;;
44328;SDS011;30039;51.462;6.892;2024-02-15T08:24:36;6.07;;;2.30;;
44328;SDS011;30039;51.462;6.892;2024-02-15T08:27:21;5.18;;;2.10;;
44328;SDS011;30039;51.462;6.892;2024-02-15T08:30:08;9.30;;;2.47;;
44328;SDS011;30039;51.462;6.892;2024-02-15T08:32:54;7.10;;;2.50;;
44328;SDS011;30039;51.462;6.892;2024-02-15T08:35:40;5.53;;;2.30;;
44328;SDS011;30039;51.462;6.892;2024-02-15T08:38:26;5.28;;;2.10;;
44328;SDS011;30039;51.462;6.892;2024-02-15T08:41:12;6.35;;;2.38;;
44328;SDS011;30039;51.462;6.892;2024-02-15T08:43:58;6.32;;;2.83;;
44328;SDS011;30039;51.462;6.892;2024-02-15T08:46:45;7.78;;;2.95;;
44328;SDS011;30039;51.462;6.892;2024-02-15T08:49:31;5.30;;;2.40;;
44328;SDS011;30039;51.462;6.892;2024-02-15T08:52:17;10.48;;;2.50;;
44328;SDS011;30039;51.462;6.892;2024-02-15T08:55:10;14.07;;;2.25;;
44328;SDS011;30039;51.462;6.892;2024-02-15T08:57:56;6.80;;;2.13;;
44328;SDS011;30039;51.462;6.892;2024-02-15T09:00:41;10.38;;;2.20;;
44328;SDS011;30039;51.462;6.892;2024-02-15T09:03:30;4.15;;;2.30;;
44328;SDS011;30039;51.462;6.892;2024-02-15T09:06:15;6.00;;;2.03;;
44328;SDS011;30039;51.462;6.892;2024-02-15T09:09:01;4.30;;;2.20;;
44328;SDS011;30039;51.462;6.892;2024-02-15T09:11:46;4.55;;;2.10;;
44328;SDS011;30039;51.462;6.892;2024-02-15T09:14:32;5.95;;;2.17;;
44328;SDS011;30039;51.462;6.892;2024-02-15T09:17:18;5.57;;;1.80;;
44328;SDS011;30039;51.462;6.892;2024-02-15T09:20:07;6.18;;;2.20;;
44328;SDS011;30039;51.462;6.892;2024-02-15T09:22:54;5.47;;;2.00;;
44328;SDS011;30039;51.462;6.892;2024-02-15T09:25:41;6.38;;;1.88;;
44328;SDS011;30039;51.462;6.892;2024-02-15T09:28:29;8.20;;;2.03;;
44328;SDS011;30039;51.462;6.892;2024-02-15T09:31:16;4.90;;;1.80;;
44328;SDS011;30039;51.462;6.892;2024-02-15T09:34:01;5.68;;;2.10;;
44328;SDS011;30039;51.462;6.892;2024-02-15T09:36:50;5.47;;;1.85;;
44328;SDS011;30039;51.462;6.892;2024-02-15T09:39:36;5.07;;;2.03;;
44328;SDS011;30039;51.462;6.892;2024-02-15T09:42:23;6.45;;;1.98;;
44328;SDS011;30039;51.462;6.892;2024-02-15T09:45:09;6.82;;;2.10;;
44328;SDS011;30039;51.462;6.892;2024-02-15T09:47:56;3.78;;;1.80;;
44328;SDS011;30039;51.462;6.892;2024-02-15T09:50:46;3.35;;;1.42;;
44328;SDS011;30039;51.462;6.892;2024-02-15T09:53:33;3.90;;;1.73;;
44328;SDS011;30039;51.462;6.892;2024-02-15T09:56:18;5.07;;;2.03;;
44328;SDS011;30039;51.462;6.892;2024-02-15T09:59:06;5.53;;;2.00;;
44328;SDS011;30039;51.462;6.892;2024-02-15T10:01:52;5.45;;;1.90;;
44328;SDS011;30039;51.462;6.892;2024-02-15T10:04:40;8.05;;;2.35;;
44328;SDS011;30039;51.462;6.892;2024-02-15T10:07:25;3.28;;;1.70;;
44328;SDS011;30039;51.462;6.892;2024-02-15T10:10:19;5.35;;;2.00;;
44328;SDS011;30039;51.462;6.892;2024-02-15T10:13:05;4.72;;;1.77;;
44328;SDS011;30039;51.462;6.892;2024-02-15T10:15:50;3.47;;;1.67;;
44328;SDS011;30039;51.462;6.892;2024-02-15T10:18:36;3.65;;;1.60;;
44328;SDS011;30039;51.462;6.892;2024-02-15T10:21:25;3.20;;;1.52;;
44328;SDS011;30039;51.462;6.892;2024-02-15T10:24:11;3.55;;;1.52;;
44328;SDS011;30039;51.462;6.892;2024-02-15T10:27:00;3.88;;;1.60;;
44328;SDS011;30039;51.462;6.892;2024-02-15T10:29:49;6.45;;;1.60;;
44328;SDS011;30039;51.462;6.892;2024-02-15T10:32:34;3.35;;;1.50;;
44328;SDS011;30039;51.462;6.892;2024-02-15T10:35:21;7.45;;;1.73;;
44328;SDS011;30039;51.462;6.892;2024-02-15T10:38:07;5.63;;;1.60;;
44328;SDS011;30039;51.462;6.892;2024-02-15T10:40:53;6.07;;;1.70;;
44328;SDS011;30039;51.462;6.892;2024-02-15T10:43:47;3.88;;;1.40;;
44328;SDS011;30039;51.462;6.892;2024-02-15T10:46:33;6.85;;;1.65;;
44328;SDS011;30039;51.462;6.892;2024-02-15T10:49:23;3.70;;;1.40;;
44328;SDS011;30039;51.462;6.892;2024-02-15T10:52:08;7.25;;;1.63;;
44328;SDS011;30039;51.462;6.892;2024-02-15T10:55:01;3.65;;;1.33;;
44328;SDS011;30039;51.462;6.892;2024-02-15T10:57:48;2.90;;;1.50;;
44328;SDS011;30039;51.462;6.892;2024-02-15T11:00:36;6.30;;;1.52;;
44328;SDS011;30039;51.462;6.892;2024-02-15T11:03:25;6.32;;;1.83;;
44328;SDS011;30039;51.462;6.892;2024-02-15T11:06:12;4.05;;;1.40;;
44328;SDS011;30039;51.462;6.892;2024-02-15T11:08:59;6.72;;;1.63;;
44328;SDS011;30039;51.462;6.892;2024-02-15T11:11:45;4.25;;;1.50;;
44328;SDS011;30039;51.462;6.892;2024-02-15T11:14:32;4.13;;;1.50;;
44328;SDS011;30039;51.462;6.892;2024-02-15T11:23:24;4.68;;;1.38;;
44328;SDS011;30039;51.462;6.892;2024-02-15T11:35:25;5.85;;;1.80;;
44328;SDS011;30039;51.462;6.892;2024-02-15T11:38:27;4.82;;;1.67;;
44328;SDS011;30039;51.462;6.892;2024-02-15T11:41:13;3.88;;;1.58;;
44328;SDS011;30039;51.462;6.892;2024-02-15T11:44:03;5.78;;;1.60;;
44328;SDS011;30039;51.462;6.892;2024-02-15T11:46:51;3.80;;;1.40;;
44328;SDS011;30039;51.462;6.892;2024-02-15T11:49:38;6.57;;;1.52;;
44328;SDS011;30039;51.462;6.892;2024-02-15T11:52:24;6.50;;;2.20;;
44328;SDS011;30039;51.462;6.892;2024-02-15T11:55:10;4.97;;;1.50;;
44328;SDS011;30039;51.462;6.892;2024-02-15T11:57:57;4.43;;;1.35;;
44328;SDS011;30039;51.462;6.892;2024-02-15T12:00:59;5.40;;;1.60;;
44328;SDS011;30039;51.462;6.892;2024-02-15T12:04:03;6.38;;;1.50;;
44328;SDS011;30039;51.462;6.892;2024-02-15T12:07:08;4.30;;;1.80;;
44328;SDS011;30039;51.462;6.892;2024-02-15T12:10:18;5.47;;;1.88;;
44328;SDS011;30039;51.462;6.892;2024-02-15T12:13:22;2.78;;;1.20;;
44328;SDS011;30039;51.462;6.892;2024-02-15T12:16:27;3.40;;;1.30;;
44328;SDS011;30039;51.462;6.892;2024-02-15T12:19:31;5.93;;;1.60;;
44328;SDS011;30039;51.462;6.892;2024-02-15T12:22:18;5.57;;;1.38;;
44328;SDS011;30039;51.462;6.892;2024-02-15T12:25:06;2.30;;;1.15;;
44328;SDS011;30039;51.462;6.892;2024-02-15T12:27:58;3.63;;;1.60;;
44328;SDS011;30039;51.462;6.892;2024-02-15T12:30:44;5.43;;;1.50;;
44328;SDS011;30039;51.462;6.892;2024-02-15T12:33:29;4.93;;;1.40;;
44328;SDS011;30039;51.462;6.892;2024-02-15T12:36:16;3.38;;;1.20;;
44328;SDS011;30039;51.462;6.892;2024-02-15T12:39:05;5.22;;;1.75;;
44328;SDS011;30039;51.462;6.892;2024-02-15T12:41:57;2.45;;;1.40;;
44328;SDS011;30039;51.462;6.892;2024-02-15T12:44:43;5.43;;;1.60;;
44328;SDS011;30039;51.462;6.892;2024-02-15T12:47:31;2.90;;;1.23;;
44328;SDS011;30039;51.462;6.892;2024-02-15T12:50:17;3.17;;;1.40;;
44328;SDS011;30039;51.462;6.892;2024-02-15T12:53:03;5.53;;;1.58;;
44328;SDS011;30039;51.462;6.892;2024-02-15T12:55:52;4.03;;;1.65;;
44328;SDS011;30039;51.462;6.892;2024-02-15T12:58:38;8.38;;;1.75;;
44328;SDS011;30039;51.462;6.892;2024-02-15T13:01:25;3.70;;;1.50;;
44328;SDS011;30039;51.462;6.892;2024-02-15T13:04:23;3.58;;;1.20;;
44328;SDS011;30039;51.462;6.892;2024-02-15T13:07:10;5.70;;;1.60;;
44328;SDS011;30039;51.462;6.892;2024-02-15T13:09:55;3.33;;;1.75;;
44328;SDS011;30039;51.462;6.892;2024-02-15T13:12:41;4.03;;;1.25;;
44328;SDS011;30039;51.462;6.892;2024-02-15T13:15:29;3.55;;;1.30;;
44328;SDS011;30039;51.462;6.892;2024-02-15T13:18:18;2.20;;;1.10;;
44328;SDS011;30039;51.462;6.892;2024-02-15T13:21:03;2.88;;;1.15;;
44328;SDS011;30039;51.462;6.892;2024-02-15T13:23:51;2.33;;;1.20;;
44328;SDS011;30039;51.462;6.892;2024-02-15T13:26:37;5.88;;;1.20;;
44328;SDS011;30039;51.462;6.892;2024-02-15T13:29:22;5.07;;;1.30;;
44328;SDS011;30039;51.462;6.892;2024-02-15T13:32:08;5.75;;;1.50;;
44328;SDS011;30039;51.462;6.892;2024-02-15T13:34:57;4.05;;;1.25;;
44328;SDS011;30039;51.462;6.892;2024-02-15T13:37:48;2.70;;;1.20;;
44328;SDS011;30039;51.462;6.892;2024-02-15T13:40:34;5.75;;;1.42;;
44328;SDS011;30039;51.462;6.892;2024-02-15T13:43:20;3.88;;;1.00;;
44328;SDS011;30039;51.462;6.892;2024-02-15T13:46:06;3.17;;;1.35;;
44328;SDS011;30039;51.462;6.892;2024-02-15T13:48:51;4.18;;;1.17;;
44328;SDS011;30039;51.462;6.892;2024-02-15T13:51:37;3.78;;;1.30;;
44328;SDS011;30039;51.462;6.892;2024-02-15T13:54:23;2.13;;;1.10;;
44328;SDS011;30039;51.462;6.892;2024-02-15T13:57:09;4.90;;;1.30;;
44328;SDS011;30039;51.462;6.892;2024-02-15T13:59:54;5.40;;;1.35;;
44328;SDS011;30039;51.462;6.892;2024-02-15T14:02:40;4.28;;;1.17;;
44328;SDS011;30039;51.462;6.892;2024-02-15T14:05:27;2.63;;;1.25;;
44328;SDS011;30039;51.462;6.892;2024-02-15T14:08:15;4.00;;;1.30;;
44328;SDS011;30039;51.462;6.892;2024-02-15T14:11:01;4.43;;;1.20;;
44328;SDS011;30039;51.462;6.892;2024-02-15T14:13:48;4.28;;;1.38;;
44328;SDS011;30039;51.462;6.892;2024-02-15T14:16:33;4.03;;;1.67;;
44328;SDS011;30039;51.462;6.892;2024-02-15T14:19:19;3.65;;;1.50;;
44328;SDS011;30039;51.462;6.892;2024-02-15T14:22:06;3.22;;;1.42;;
44328;SDS011;30039;51.462;6.892;2024-02-15T14:24:54;5.05;;;1.30;;
44328;SDS011;30039;51.462;6.892;2024-02-15T14:27:40;4.25;;;1.20;;
44328;SDS011;30039;51.462;6.892;2024-02-15T14:30:28;4.05;;;1.20;;
44328;SDS011;30039;51.462;6.892;2024-02-15T14:33:32;3.70;;;1.58;;
44328;SDS011;30039;51.462;6.892;2024-02-15T14:36:17;2.65;;;1.17;;
44328;SDS011;30039;51.462;6.892;2024-02-15T14:39:03;2.50;;;1.10;;
44328;SDS011;30039;51.462;6.892;2024-02-15T14:41:50;3.20;;;1.30;;
44328;SDS011;30039;51.462;6.892;2024-02-15T14:44:36;3.08;;;1.17;;
44328;SDS011;30039;51.462;6.892;2024-02-15T14:47:22;5.43;;;1.30;;
44328;SDS011;30039;51.462;6.892;2024-02-15T14:50:07;4.72;;;1.30;;
44328;SDS011;30039;51.462;6.892;2024-02-15T14:52:53;4.63;;;1.30;;
44328;SDS011;30039;51.462;6.892;2024-02-15T14:55:39;5.00;;;1.30;;
44328;SDS011;30039;51.462;6.892;2024-02-15T14:58:24;5.13;;;1.45;;
44328;SDS011;30039;51.462;6.892;2024-02-15T15:01:10;3.17;;;1.20;;
44328;SDS011;30039;51.462;6.892;2024-02-15T15:03:58;3.72;;;1.35;;
44328;SDS011;30039;51.462;6.892;2024-02-15T15:06:48;2.97;;;1.30;;
44328;SDS011;30039;51.462;6.892;2024-02-15T15:09:53;3.88;;;1.50;;
44328;SDS011;30039;51.462;6.892;2024-02-15T15:13:04;2.90;;;1.60;;
44328;SDS011;30039;51.462;6.892;2024-02-15T15:15:50;2.90;;;1.45;;
44328;SDS011;30039;51.462;6.892;2024-02-15T15:18:35;4.07;;;1.48;;
44328;SDS011;30039;51.462;6.892;2024-02-15T15:21:21;5.07;;;1.55;;
44328;SDS011;30039;51.462;6.892;2024-02-15T15:24:08;4.00;;;1.45;;
44328;SDS011;30039;51.462;6.892;2024-02-15T15:26:55;3.45;;;1.25;;
44328;SDS011;30039;51.462;6.892;2024-02-15T15:29:41;4.90;;;1.20;;
44328;SDS011;30039;51.462;6.892;2024-02-15T15:32:27;3.58;;;1.30;;
44328;SDS011;30039;51.462;6.892;2024-02-15T15:35:13;2.47;;;1.30;;
44328;SDS011;30039;51.462;6.892;2024-02-15T15:37:59;3.92;;;1.30;;
44328;SDS011;30039;51.462;6.892;2024-02-15T15:40:45;3.65;;;1.20;;
44328;SDS011;30039;51.462;6.892;2024-02-15T15:43:31;4.40;;;1.60;;
44328;SDS011;30039;51.462;6.892;2024-02-15T15:46:17;3.72;;;1.38;;
44328;SDS011;30039;51.462;6.892;2024-02-15T15:49:02;2.20;;;1.20;;
44328;SDS011;30039;51.462;6.892;2024-02-15T15:51:50;5.25;;;1.30;;
44328;SDS011;30039;51.462;6.892;2024-02-15T15:54:39;4.13;;;1.30;;
44328;SDS011;30039;51.462;6.892;2024-02-15T15:57:25;2.67;;;1.30;;
44328;SDS011;30039;51.462;6.892;2024-02-15T16:00:11;1.90;;;1.20;;
44328;SDS011;30039;51.462;6.892;2024-02-15T16:02:59;5.28;;;2.08;;
44328;SDS011;30039;51.462;6.892;2024-02-15T16:05:49;2.63;;;1.27;;
44328;SDS011;30039;51.462;6.892;2024-02-15T16:08:35;4.28;;;1.58;;
44328;SDS011;30039;51.462;6.892;2024-02-15T16:11:21;5.50;;;1.50;;
44328;SDS011;30039;51.462;6.892;2024-02-15T16:14:10;8.18;;;1.95;;
44328;SDS011;30039;51.462;6.892;2024-02-15T16:16:56;4.47;;;1.30;;
44328;SDS011;30039;51.462;6.892;2024-02-15T16:19:42;4.20;;;1.48;;
44328;SDS011;30039;51.462;6.892;2024-02-15T16:22:28;2.35;;;1.30;;
44328;SDS011;30039;51.462;6.892;2024-02-15T16:25:13;4.03;;;1.40;;
44328;SDS011;30039;51.462;6.892;2024-02-15T16:27:59;5.25;;;1.10;;
44328;SDS011;30039;51.462;6.892;2024-02-15T16:30:47;4.00;;;1.77;;
44328;SDS011;30039;51.462;6.892;2024-02-15T16:33:33;2.60;;;1.40;;
44328;SDS011;30039;51.462;6.892;2024-02-15T16:36:19;3.35;;;1.60;;
44328;SDS011;30039;51.462;6.892;2024-02-15T16:39:05;2.70;;;1.33;;
44328;SDS011;30039;51.462;6.892;2024-02-15T16:41:52;3.05;;;1.20;;
44328;SDS011;30039;51.462;6.892;2024-02-15T16:44:38;3.75;;;1.50;;
44328;SDS011;30039;51.462;6.892;2024-02-15T16:47:24;2.90;;;1.45;;
44328;SDS011;30039;51.462;6.892;2024-02-15T16:50:09;6.78;;;1.67;;
44328;SDS011;30039;51.462;6.892;2024-02-15T16:52:56;3.83;;;1.50;;
44328;SDS011;30039;51.462;6.892;2024-02-15T16:55:41;4.50;;;1.60;;
44328;SDS011;30039;51.462;6.892;2024-02-15T16:58:27;2.70;;;1.30;;
44328;SDS011;30039;51.462;6.892;2024-02-15T17:01:13;4.10;;;1.30;;
44328;SDS011;30039;51.462;6.892;2024-02-15T17:03:59;4.35;;;1.60;;
44328;SDS011;30039;51.462;6.892;2024-02-15T17:06:50;7.38;;;1.67;;